Time;durP1;ratioP1;P1;durP2;ratioP2;P2;SDS_P1;SDS_P2;PMS_P1;PMS_P2;Temp;Humidity;BMP_temperature;BMP_pressure;BME280_temperature;BME280_humidity;BME280_pressure;Samples;Min_cycle;Max_cycle;Signal;HPM_P1;HPM_P2
2023/07/19 00:00:41;;;;;;;8.05;3.08;;;;;;;;;;5224807;28;20341;-70
2023/07/19 00:03:11;;;;;;;11.05;2.90;;;;;;;;;;5224878;28;20033;-70
2023/07/19 00:05:42;;;;;;;4.90;2.50;;;;;;;;;;5224437;28;20028;-71
2023/07/19 00:08:12;;;;;;;8.70;3.00;;;;;;;;;;5224425;28;20029;-70
2023/07/19 00:10:42;;;;;;;8.00;2.65;;;;;;;;;;5223741;28;20017;-70
2023/07/19 00:13:13;;;;;;;5.25;2.33;;;;;;;;;;5211238;28;20028;-70
2023/07/19 00:15:43;;;;;;;5.85;2.47;;;;;;;;;;5224192;28;20025;-70
2023/07/19 00:18:13;;;;;;;7.05;2.70;;;;;;;;;;5224504;28;20025;-70
2023/07/19 00:20:44;;;;;;;7.45;2.85;;;;;;;;;;5224563;28;20442;-70
2023/07/19 00:23:14;;;;;;;6.55;3.08;;;;;;;;;;5224047;28;20028;-70
2023/07/19 00:25:45;;;;;;;5.43;3.38;;;;;;;;;;5223943;28;20017;-71
2023/07/19 00:28:16;;;;;;;5.85;3.10;;;;;;;;;;5224156;28;20024;-71
2023/07/19 00:30:47;;;;;;;6.75;3.22;;;;;;;;;;5224265;28;20021;-71
2023/07/19 00:33:17;;;;;;;5.65;3.25;;;;;;;;;;5224184;28;20501;-71
2023/07/19 00:35:47;;;;;;;7.43;3.30;;;;;;;;;;5223846;28;20029;-71
2023/07/19 00:38:17;;;;;;;7.97;3.15;;;;;;;;;;5224027;28;20470;-71
2023/07/19 00:40:48;;;;;;;7.80;3.30;;;;;;;;;;5224132;28;20021;-70
2023/07/19 00:43:19;;;;;;;7.88;2.88;;;;;;;;;;5223893;28;20013;-70
2023/07/19 00:45:52;;;;;;;7.82;3.92;;;;;;;;;;5223520;28;20060;-71
2023/07/19 00:48:23;;;;;;;7.97;3.47;;;;;;;;;;5223683;28;20033;-70
2023/07/19 00:50:54;;;;;;;10.52;3.78;;;;;;;;;;5224067;28;20430;-71
2023/07/19 00:53:24;;;;;;;10.75;4.05;;;;;;;;;;5223909;28;20033;-70
2023/07/19 00:55:55;;;;;;;12.68;3.85;;;;;;;;;;5223629;28;20402;-70
2023/07/19 00:58:25;;;;;;;7.72;3.30;;;;;;;;;;5223371;28;20024;-70
2023/07/19 01:00:56;;;;;;;10.48;3.30;;;;;;;;;;5224188;28;20017;-70
2023/07/19 01:03:26;;;;;;;11.75;3.90;;;;;;;;;;5224042;28;20032;-70
2023/07/19 01:05:58;;;;;;;5.90;3.47;;;;;;;;;;5223685;28;20418;-70
2023/07/19 01:08:28;;;;;;;12.00;5.05;;;;;;;;;;5223772;28;20017;-70
2023/07/19 01:10:59;;;;;;;8.95;3.70;;;;;;;;;;5223559;28;20021;-70
2023/07/19 01:13:29;;;;;;;9.60;3.85;;;;;;;;;;5223875;28;20020;-71
2023/07/19 01:15:59;;;;;;;9.32;4.32;;;;;;;;;;5223591;28;20386;-71
2023/07/19 01:18:30;;;;;;;9.48;4.35;;;;;;;;;;5223589;28;20040;-71
2023/07/19 01:21:00;;;;;;;5.43;3.97;;;;;;;;;;5223918;28;20009;-70
2023/07/19 01:23:30;;;;;;;10.85;4.50;;;;;;;;;;5226439;28;20490;-70
2023/07/19 01:26:01;;;;;;;8.43;4.35;;;;;;;;;;5227500;28;20029;-70
2023/07/19 01:28:31;;;;;;;6.45;3.67;;;;;;;;;;5227628;28;20032;-70
2023/07/19 01:31:03;;;;;;;8.77;3.92;;;;;;;;;;5227931;28;20029;-70
2023/07/19 01:33:33;;;;;;;7.65;4.15;;;;;;;;;;5227696;28;20048;-70
2023/07/19 01:36:04;;;;;;;9.48;3.83;;;;;;;;;;5227141;28;20106;-70
2023/07/19 01:38:35;;;;;;;10.98;3.90;;;;;;;;;;5227339;28;20028;-70
2023/07/19 01:41:05;;;;;;;12.23;3.83;;;;;;;;;;5228004;28;20063;-70
2023/07/19 01:43:35;;;;;;;6.47;3.70;;;;;;;;;;5227472;28;20425;-70
2023/07/19 01:46:06;;;;;;;7.65;4.00;;;;;;;;;;5227232;28;20152;-70
2023/07/19 01:48:36;;;;;;;11.80;4.28;;;;;;;;;;5226793;28;20027;-69
2023/07/19 01:51:06;;;;;;;6.90;3.80;;;;;;;;;;5227601;28;20029;-70
2023/07/19 01:53:36;;;;;;;9.25;4.43;;;;;;;;;;5227306;28;20436;-70
2023/07/19 01:56:07;;;;;;;10.40;4.50;;;;;;;;;;5226960;28;20024;-70
2023/07/19 01:58:37;;;;;;;7.30;3.80;;;;;;;;;;5226857;28;20028;-71
2023/07/19 02:01:07;;;;;;;9.27;4.22;;;;;;;;;;5226807;28;20028;-71
2023/07/19 02:03:38;;;;;;;11.25;4.10;;;;;;;;;;5227120;28;20494;-70
2023/07/19 02:06:08;;;;;;;7.05;4.75;;;;;;;;;;5226701;28;20021;-70
2023/07/19 02:08:38;;;;;;;8.68;4.00;;;;;;;;;;5227216;28;20056;-70
2023/07/19 02:11:09;;;;;;;7.93;4.15;;;;;;;;;;5227350;28;20079;-70
2023/07/19 02:13:39;;;;;;;6.88;4.53;;;;;;;;;;5226707;28;20107;-70
2023/07/19 02:16:09;;;;;;;6.15;3.90;;;;;;;;;;5226574;28;20033;-70
2023/07/19 02:18:40;;;;;;;6.32;3.50;;;;;;;;;;5226724;28;20388;-70
2023/07/19 02:21:10;;;;;;;8.27;3.28;;;;;;;;;;5226850;28;20021;-70
2023/07/19 02:23:40;;;;;;;8.52;3.60;;;;;;;;;;5226616;28;20056;-70
2023/07/19 02:26:10;;;;;;;6.72;3.78;;;;;;;;;;5225830;28;20025;-70
2023/07/19 02:28:41;;;;;;;11.90;3.90;;;;;;;;;;5226477;28;20140;-70
2023/07/19 02:31:11;;;;;;;8.80;3.65;;;;;;;;;;5226681;28;20409;-69
2023/07/19 02:33:41;;;;;;;7.13;3.78;;;;;;;;;;5226147;28;20035;-70
2023/07/19 02:36:12;;;;;;;9.35;3.90;;;;;;;;;;5226548;28;20028;-70
2023/07/19 02:38:44;;;;;;;9.30;3.75;;;;;;;;;;5225859;28;20618;-70
2023/07/19 02:41:14;;;;;;;9.48;4.32;;;;;;;;;;5226521;28;20021;-71
2023/07/19 02:43:45;;;;;;;8.50;4.07;;;;;;;;;;5226353;28;20019;-70
2023/07/19 02:46:15;;;;;;;13.63;4.22;;;;;;;;;;5224751;28;20436;-70
2023/07/19 02:48:45;;;;;;;9.45;4.50;;;;;;;;;;5226025;28;20032;-70
2023/07/19 02:51:16;;;;;;;9.77;4.65;;;;;;;;;;5226194;28;20430;-70
2023/07/19 02:53:47;;;;;;;11.75;4.20;;;;;;;;;;5226248;28;20025;-70
2023/07/19 02:56:17;;;;;;;8.98;4.82;;;;;;;;;;5225853;28;20021;-70
2023/07/19 02:58:47;;;;;;;11.30;4.05;;;;;;;;;;5225961;28;20021;-70
2023/07/19 03:01:18;;;;;;;6.55;4.10;;;;;;;;;;5225682;28;20017;-71
2023/07/19 03:03:48;;;;;;;7.63;4.03;;;;;;;;;;5226054;28;20490;-70
2023/07/19 03:06:19;;;;;;;6.25;3.80;;;;;;;;;;5225744;28;20032;-70
2023/07/19 03:08:49;;;;;;;8.45;4.40;;;;;;;;;;5225881;28;20490;-70
2023/07/19 03:11:19;;;;;;;8.00;4.88;;;;;;;;;;5225679;28;20066;-71
2023/07/19 03:13:49;;;;;;;16.92;5.35;;;;;;;;;;5225732;28;20067;-70
2023/07/19 03:16:20;;;;;;;11.02;5.03;;;;;;;;;;5225062;28;20078;-70
2023/07/19 03:18:50;;;;;;;8.25;5.00;;;;;;;;;;5225752;28;20037;-70
2023/07/19 03:21:20;;;;;;;9.07;4.78;;;;;;;;;;5225657;28;20013;-70
2023/07/19 03:23:51;;;;;;;12.60;5.25;;;;;;;;;;5225626;28;20131;-70
2023/07/19 03:26:21;;;;;;;10.20;4.43;;;;;;;;;;5225121;28;20029;-70
2023/07/19 03:28:51;;;;;;;10.55;5.38;;;;;;;;;;5221025;28;20382;-70
2023/07/19 03:31:21;;;;;;;16.70;5.75;;;;;;;;;;5225907;28;20032;-70
2023/07/19 03:33:52;;;;;;;8.45;4.75;;;;;;;;;;5225704;28;20071;-70
2023/07/19 03:36:22;;;;;;;8.35;4.78;;;;;;;;;;5225019;28;20082;-70
2023/07/19 03:38:52;;;;;;;15.38;6.18;;;;;;;;;;5224771;28;20425;-70
2023/07/19 03:41:24;;;;;;;10.35;4.95;;;;;;;;;;5225223;28;20040;-71
2023/07/19 03:43:54;;;;;;;11.95;5.00;;;;;;;;;;5224598;28;20032;-71
2023/07/19 03:46:25;;;;;;;7.15;4.90;;;;;;;;;;5224553;28;20017;-71
2023/07/19 03:48:55;;;;;;;13.20;6.53;;;;;;;;;;5225083;28;20462;-71
2023/07/19 03:51:25;;;;;;;10.15;5.75;;;;;;;;;;5224652;28;20032;-70
2023/07/19 03:53:56;;;;;;;13.20;6.07;;;;;;;;;;5225192;28;20031;-71
2023/07/19 03:56:26;;;;;;;8.70;6.00;;;;;;;;;;5225376;28;20017;-71
2023/07/19 03:58:56;;;;;;;11.27;5.50;;;;;;;;;;5224094;28;20474;-70
2023/07/19 04:01:27;;;;;;;13.52;6.10;;;;;;;;;;5225181;28;20025;-71
2023/07/19 04:03:57;;;;;;;9.23;5.70;;;;;;;;;;5224736;28;20031;-70
2023/07/19 04:06:27;;;;;;;8.73;5.40;;;;;;;;;;5223439;28;20021;-70
2023/07/19 04:08:58;;;;;;;9.82;5.55;;;;;;;;;;5224616;28;20017;-70
2023/07/19 04:11:28;;;;;;;10.48;5.70;;;;;;;;;;5224628;28;20021;-70
2023/07/19 04:13:59;;;;;;;11.68;5.47;;;;;;;;;;5224845;28;20035;-70
2023/07/19 04:16:29;;;;;;;13.63;6.07;;;;;;;;;;5223586;28;20063;-70
2023/07/19 04:18:59;;;;;;;10.32;6.30;;;;;;;;;;5224392;28;20108;-70
2023/07/19 04:21:29;;;;;;;16.55;6.20;;;;;;;;;;5224881;28;20475;-70
2023/07/19 04:24:00;;;;;;;12.68;5.65;;;;;;;;;;5224440;28;20024;-70
2023/07/19 04:26:30;;;;;;;12.57;5.50;;;;;;;;;;5224311;28;20048;-70
2023/07/19 04:29:00;;;;;;;14.93;6.10;;;;;;;;;;5223914;28;20029;-70
2023/07/19 04:31:31;;;;;;;16.95;5.90;;;;;;;;;;5224813;28;20482;-70
2023/07/19 04:34:01;;;;;;;13.18;5.95;;;;;;;;;;5224457;28;20032;-70
2023/07/19 04:36:31;;;;;;;14.35;5.97;;;;;;;;;;5223852;28;20027;-70
2023/07/19 04:39:02;;;;;;;15.30;5.88;;;;;;;;;;5223978;28;20032;-70
2023/07/19 04:41:32;;;;;;;12.32;5.63;;;;;;;;;;5224080;28;20033;-70
2023/07/19 04:44:02;;;;;;;11.30;5.97;;;;;;;;;;5224490;28;20367;-70
2023/07/19 04:46:33;;;;;;;11.75;6.22;;;;;;;;;;5223624;28;20017;-70
2023/07/19 04:49:03;;;;;;;12.52;5.60;;;;;;;;;;5224262;28;20013;-70
2023/07/19 04:51:34;;;;;;;13.40;5.20;;;;;;;;;;5224264;28;20053;-70
2023/07/19 04:54:04;;;;;;;10.10;5.20;;;;;;;;;;5223785;28;20067;-70
2023/07/19 04:56:34;;;;;;;8.07;4.95;;;;;;;;;;5223530;28;20028;-70
2023/07/19 04:59:05;;;;;;;13.50;5.00;;;;;;;;;;5224012;28;20028;-70
2023/07/19 05:01:35;;;;;;;10.23;5.55;;;;;;;;;;5223914;28;20517;-70
2023/07/19 05:04:05;;;;;;;11.93;5.85;;;;;;;;;;5223996;28;20028;-70
2023/07/19 05:06:36;;;;;;;13.02;5.60;;;;;;;;;;5223120;28;20051;-70
2023/07/19 05:09:08;;;;;;;10.43;5.40;;;;;;;;;;5224159;28;20071;-70
2023/07/19 05:11:39;;;;;;;14.20;5.47;;;;;;;;;;5223831;28;20135;-70
2023/07/19 05:14:10;;;;;;;13.00;5.03;;;;;;;;;;5223984;28;20021;-70
2023/07/19 05:16:40;;;;;;;13.75;5.75;;;;;;;;;;5223237;28;20020;-70
2023/07/19 05:19:11;;;;;;;15.30;5.03;;;;;;;;;;5223455;28;20035;-70
2023/07/19 05:21:41;;;;;;;11.70;4.88;;;;;;;;;;5223765;28;20021;-70
2023/07/19 05:24:12;;;;;;;9.23;4.45;;;;;;;;;;5223777;28;20017;-70
2023/07/19 05:26:42;;;;;;;13.68;5.35;;;;;;;;;;5223524;28;20386;-70
2023/07/19 05:29:12;;;;;;;11.48;4.95;;;;;;;;;;5223578;28;20024;-70
2023/07/19 05:31:42;;;;;;;11.95;4.90;;;;;;;;;;5223674;28;20483;-70
2023/07/19 05:34:13;;;;;;;11.82;4.28;;;;;;;;;;5223689;28;20079;-70
2023/07/19 05:36:43;;;;;;;18.50;4.28;;;;;;;;;;5223135;28;20413;-70
2023/07/19 05:39:14;;;;;;;11.65;4.28;;;;;;;;;;5223433;28;20065;-70
2023/07/19 05:41:44;;;;;;;11.90;4.28;;;;;;;;;;5223880;28;20392;-71
2023/07/19 05:44:14;;;;;;;10.30;3.92;;;;;;;;;;5223327;28;20028;-71
2023/07/19 05:46:44;;;;;;;11.52;4.13;;;;;;;;;;5223270;28;20467;-70
2023/07/19 05:49:15;;;;;;;11.20;3.92;;;;;;;;;;5222396;28;20075;-70
2023/07/19 05:51:45;;;;;;;9.63;4.05;;;;;;;;;;5223536;28;20136;-70
2023/07/19 05:54:16;;;;;;;9.90;3.80;;;;;;;;;;5223269;28;20028;-70
2023/07/19 05:56:46;;;;;;;9.75;3.90;;;;;;;;;;5223294;28;20096;-70
2023/07/19 05:59:16;;;;;;;8.88;3.20;;;;;;;;;;5223508;28;20024;-70
2023/07/19 06:01:47;;;;;;;14.63;4.57;;;;;;;;;;5223368;28;20033;-70
2023/07/19 06:04:17;;;;;;;11.40;3.83;;;;;;;;;;5223501;28;20039;-70
2023/07/19 06:06:49;;;;;;;10.80;3.92;;;;;;;;;;5222525;28;20131;-70
2023/07/19 06:09:19;;;;;;;8.10;3.72;;;;;;;;;;5226552;28;20047;-70
2023/07/19 06:11:50;;;;;;;9.63;3.53;;;;;;;;;;5225908;28;20025;-71
2023/07/19 06:14:20;;;;;;;11.77;3.83;;;;;;;;;;5226921;28;20013;-71
2023/07/19 06:16:50;;;;;;;10.27;4.10;;;;;;;;;;5226493;28;20107;-70
2023/07/19 06:19:21;;;;;;;14.57;3.60;;;;;;;;;;5226486;28;20096;-70
2023/07/19 06:21:51;;;;;;;12.90;4.05;;;;;;;;;;5226905;28;20025;-70
2023/07/19 06:24:22;;;;;;;8.63;3.83;;;;;;;;;;5225381;28;20061;-71
2023/07/19 06:26:52;;;;;;;11.55;4.18;;;;;;;;;;5226308;28;20017;-70
2023/07/19 06:29:23;;;;;;;8.48;3.33;;;;;;;;;;5226676;28;20458;-70
2023/07/19 06:31:53;;;;;;;8.20;2.78;;;;;;;;;;5226303;28;20021;-70
2023/07/19 06:34:24;;;;;;;9.63;4.40;;;;;;;;;;5226620;28;20116;-71
2023/07/19 06:36:54;;;;;;;12.32;3.80;;;;;;;;;;5225943;28;20013;-71
2023/07/19 06:39:24;;;;;;;10.75;3.75;;;;;;;;;;5226687;28;20028;-70
2023/07/19 06:41:55;;;;;;;8.02;3.75;;;;;;;;;;5226374;28;20021;-71
2023/07/19 06:44:25;;;;;;;9.20;3.15;;;;;;;;;;5226111;28;20013;-70
2023/07/19 06:46:55;;;;;;;6.20;3.40;;;;;;;;;;5225912;28;20086;-71
2023/07/19 06:49:25;;;;;;;10.43;3.63;;;;;;;;;;5226437;28;20100;-71
2023/07/19 06:51:56;;;;;;;16.95;4.07;;;;;;;;;;5226274;28;20471;-71
2023/07/19 06:54:26;;;;;;;11.48;3.58;;;;;;;;;;5226151;28;20017;-71
2023/07/19 06:56:56;;;;;;;8.35;3.47;;;;;;;;;;5225832;28;20470;-71
2023/07/19 06:59:27;;;;;;;8.57;3.65;;;;;;;;;;5226104;28;20029;-71
2023/07/19 07:01:57;;;;;;;13.70;3.38;;;;;;;;;;5226117;28;20048;-71
2023/07/19 07:04:28;;;;;;;10.60;3.65;;;;;;;;;;5225804;28;20447;-71
2023/07/19 07:06:58;;;;;;;12.07;3.65;;;;;;;;;;5225605;28;20028;-71
2023/07/19 07:09:28;;;;;;;9.45;3.90;;;;;;;;;;5225515;28;20017;-71
2023/07/19 07:11:58;;;;;;;6.68;3.00;;;;;;;;;;5226163;28;20063;-70
2023/07/19 07:14:29;;;;;;;10.07;3.30;;;;;;;;;;5225806;28;20078;-70
2023/07/19 07:16:59;;;;;;;15.95;3.40;;;;;;;;;;5225216;28;20155;-71
2023/07/19 07:19:29;;;;;;;11.60;3.42;;;;;;;;;;5224485;28;20016;-71
2023/07/19 07:22:00;;;;;;;9.15;3.22;;;;;;;;;;5225535;28;20497;-71
2023/07/19 07:24:30;;;;;;;12.93;3.05;;;;;;;;;;5225725;28;20025;-71
2023/07/19 07:27:02;;;;;;;11.02;3.10;;;;;;;;;;5225379;28;20100;-71
2023/07/19 07:29:32;;;;;;;10.07;3.25;;;;;;;;;;5225797;28;20013;-71
2023/07/19 07:32:02;;;;;;;8.43;2.75;;;;;;;;;;5225489;28;20524;-71
2023/07/19 07:34:33;;;;;;;7.05;2.58;;;;;;;;;;5225293;28;20045;-71
2023/07/19 07:37:03;;;;;;;7.43;2.50;;;;;;;;;;5225151;28;20489;-71
2023/07/19 07:39:35;;;;;;;7.00;2.63;;;;;;;;;;5225619;28;20021;-71
2023/07/19 07:42:05;;;;;;;9.13;2.40;;;;;;;;;;5225509;28;20013;-71
2023/07/19 07:44:36;;;;;;;12.05;2.80;;;;;;;;;;5225267;28;20426;-71
2023/07/19 07:47:06;;;;;;;6.82;2.47;;;;;;;;;;5224489;28;20457;-71
2023/07/19 07:49:36;;;;;;;8.32;2.50;;;;;;;;;;5225042;28;20059;-71
2023/07/19 07:52:11;;;;;;;6.32;2.33;;;;;;;;;;5225290;28;20041;-71
2023/07/19 07:54:41;;;;;;;6.10;2.17;;;;;;;;;;5225047;28;20383;-72
2023/07/19 07:57:12;;;;;;;8.52;2.53;;;;;;;;;;5224747;28;20075;-72
2023/07/19 07:59:42;;;;;;;8.15;2.53;;;;;;;;;;5224859;28;20226;-72
2023/07/19 08:02:12;;;;;;;5.88;2.03;;;;;;;;;;5225011;28;20029;-72
2023/07/19 08:04:43;;;;;;;7.82;2.67;;;;;;;;;;5224787;28;20013;-72
2023/07/19 08:07:13;;;;;;;4.88;2.22;;;;;;;;;;5225028;28;20017;-72
2023/07/19 08:09:43;;;;;;;7.75;3.00;;;;;;;;;;5224737;28;20262;-72
2023/07/19 08:12:14;;;;;;;8.40;2.85;;;;;;;;;;5224764;28;20025;-72
2023/07/19 08:14:44;;;;;;;6.93;2.38;;;;;;;;;;5224579;28;20429;-72
2023/07/19 08:17:15;;;;;;;8.65;2.35;;;;;;;;;;5224217;28;20049;-72
2023/07/19 08:19:45;;;;;;;9.90;2.38;;;;;;;;;;5225031;28;20029;-72
2023/07/19 08:22:35;;;;;;;4.18;1.55;;;;;;;;;;5224795;28;20322;-72
2023/07/19 08:25:06;;;;;;;7.97;2.33;;;;;;;;;;5224432;28;20112;-72
2023/07/19 08:27:37;;;;;;;7.88;1.95;;;;;;;;;;5224157;28;20032;-72
2023/07/19 08:30:15;;;;;;;8.52;2.15;;;;;;;;;;5224450;28;20029;-72
2023/07/19 08:32:45;;;;;;;7.43;1.60;;;;;;;;;;5224181;28;20017;-72
2023/07/19 08:35:16;;;;;;;4.32;1.23;;;;;;;;;;5224244;28;20483;-72
2023/07/19 08:37:47;;;;;;;5.70;2.00;;;;;;;;;;5223981;28;20078;-72
2023/07/19 08:40:17;;;;;;;4.93;1.65;;;;;;;;;;5224231;28;20021;-72
2023/07/19 08:42:49;;;;;;;5.38;1.95;;;;;;;;;;5224438;28;20044;-72
2023/07/19 08:45:21;;;;;;;4.88;1.83;;;;;;;;;;5223906;28;20029;-72
2023/07/19 08:47:52;;;;;;;5.25;1.90;;;;;;;;;;5223979;28;20027;-72
2023/07/19 08:50:23;;;;;;;6.72;2.13;;;;;;;;;;5224101;28;20707;-72
2023/07/19 08:52:54;;;;;;;6.63;1.67;;;;;;;;;;5224165;28;20029;-72
2023/07/19 08:55:24;;;;;;;8.52;2.10;;;;;;;;;;5223844;28;20104;-72
2023/07/19 08:57:54;;;;;;;8.32;2.20;;;;;;;;;;5223530;28;20028;-72
2023/07/19 09:00:28;;;;;;;8.15;1.92;;;;;;;;;;5223930;28;20027;-71
2023/07/19 09:02:58;;;;;;;5.63;1.83;;;;;;;;;;5224381;28;20083;-71
2023/07/19 09:05:29;;;;;;;7.40;2.17;;;;;;;;;;5223746;28;20017;-71
2023/07/19 09:08:00;;;;;;;6.65;2.17;;;;;;;;;;5223412;28;20672;-72
2023/07/19 09:10:30;;;;;;;4.68;1.60;;;;;;;;;;5223844;28;20028;-72
2023/07/19 09:13:16;;;;;;;9.23;1.63;;;;;;;;;;5224002;28;20025;-72
2023/07/19 09:15:47;;;;;;;7.60;2.10;;;;;;;;;;5223391;28;20032;-72
2023/07/19 09:18:18;;;;;;;5.35;1.88;;;;;;;;;;5223633;28;20107;-72
2023/07/19 09:20:49;;;;;;;3.75;1.80;;;;;;;;;;5223698;28;20467;-72
2023/07/19 09:23:19;;;;;;;7.90;1.83;;;;;;;;;;5223968;28;20028;-72
2023/07/19 09:25:51;;;;;;;4.63;1.45;;;;;;;;;;5223480;28;20133;-72
2023/07/19 09:28:22;;;;;;;5.63;1.90;;;;;;;;;;5223775;28;20378;-72
2023/07/19 09:30:55;;;;;;;7.03;2.10;;;;;;;;;;5223660;28;20033;-72
2023/07/19 09:33:26;;;;;;;11.13;1.73;;;;;;;;;;5223747;28;20083;-72
2023/07/19 09:35:57;;;;;;;10.43;2.13;;;;;;;;;;5223146;28;20025;-72
2023/07/19 09:38:27;;;;;;;6.85;1.63;;;;;;;;;;5223565;28;20528;-72
2023/07/19 09:40:58;;;;;;;3.97;1.50;;;;;;;;;;5223738;28;20036;-72
2023/07/19 09:43:30;;;;;;;4.38;1.50;;;;;;;;;;5224361;28;20017;-72
2023/07/19 09:46:00;;;;;;;6.80;1.98;;;;;;;;;;5227283;28;20078;-72
2023/07/19 09:48:31;;;;;;;5.75;1.70;;;;;;;;;;5227341;28;20041;-73
2023/07/19 09:51:03;;;;;;;6.50;1.55;;;;;;;;;;5227700;28;20356;-72
2023/07/19 09:53:36;;;;;;;8.32;1.60;;;;;;;;;;5227433;28;20135;-72
2023/07/19 09:56:08;;;;;;;5.30;1.85;;;;;;;;;;5226919;28;20651;-73
2023/07/19 09:58:39;;;;;;;6.38;1.45;;;;;;;;;;5227076;28;20501;-73
2023/07/19 10:01:09;;;;;;;5.47;1.77;;;;;;;;;;5213987;28;20049;-73
2023/07/19 10:03:42;;;;;;;3.75;1.50;;;;;;;;;;5227348;28;20083;-72
2023/07/19 10:06:14;;;;;;;5.50;1.75;;;;;;;;;;5227251;28;20092;-72
2023/07/19 10:08:44;;;;;;;4.70;1.80;;;;;;;;;;5226794;28;20090;-72
2023/07/19 10:11:34;;;;;;;7.30;1.77;;;;;;;;;;5227190;28;20098;-72
2023/07/19 10:14:06;;;;;;;4.50;1.60;;;;;;;;;;5226916;28;20501;-72
2023/07/19 10:16:37;;;;;;;7.90;1.73;;;;;;;;;;5226291;28;20025;-72
2023/07/19 10:19:10;;;;;;;6.55;1.88;;;;;;;;;;5226972;28;20029;-72
2023/07/19 10:21:56;;;;;;;14.50;2.13;;;;;;;;;;5227089;28;20401;-72
2023/07/19 10:24:26;;;;;;;7.45;1.73;;;;;;;;;;5226651;28;20048;-72
2023/07/19 10:26:59;;;;;;;7.88;1.73;;;;;;;;;;5226936;28;20090;-72
2023/07/19 10:29:44;;;;;;;6.60;1.77;;;;;;;;;;5213140;28;20155;-72
2023/07/19 10:32:15;;;;;;;8.07;1.80;;;;;;;;;;5226937;28;20458;-73
2023/07/19 10:34:45;;;;;;;5.40;1.58;;;;;;;;;;5226716;28;20025;-73
2023/07/19 10:37:15;;;;;;;6.15;1.80;;;;;;;;;;5226055;28;20356;-72
2023/07/19 10:39:46;;;;;;;5.75;1.52;;;;;;;;;;5226305;28;20373;-72
2023/07/19 10:42:16;;;;;;;5.43;1.42;;;;;;;;;;5226520;28;20024;-73
2023/07/19 10:44:47;;;;;;;9.07;1.48;;;;;;;;;;5226442;28;20435;-73
2023/07/19 10:47:18;;;;;;;3.60;1.48;;;;;;;;;;5225953;28;20100;-73
2023/07/19 10:49:48;;;;;;;4.55;1.20;;;;;;;;;;5226348;28;20020;-72
2023/07/19 10:52:20;;;;;;;7.32;1.60;;;;;;;;;;5226156;28;20025;-72
2023/07/19 10:55:09;;;;;;;5.22;1.27;;;;;;;;;;5226027;28;20017;-72
2023/07/19 10:57:39;;;;;;;2.47;1.23;;;;;;;;;;5225910;28;20021;-72
2023/07/19 11:00:12;;;;;;;5.20;1.50;;;;;;;;;;5225931;28;20033;-72
2023/07/19 11:02:43;;;;;;;4.80;1.38;;;;;;;;;;5225674;28;20120;-72
2023/07/19 11:05:13;;;;;;;3.40;1.60;;;;;;;;;;5226225;28;20438;-71
2023/07/19 11:07:43;;;;;;;7.22;1.58;;;;;;;;;;5225671;28;20043;-72
2023/07/19 11:10:13;;;;;;;3.53;1.45;;;;;;;;;;5226028;28;20232;-71
2023/07/19 11:12:44;;;;;;;1.52;0.85;;;;;;;;;;5226054;28;20699;-72
2023/07/19 11:15:16;;;;;;;1.48;0.90;;;;;;;;;;5225702;28;20385;-72
2023/07/19 11:17:48;;;;;;;0.40;0.40;;;;;;;;;;5225377;28;20031;-72
2023/07/19 11:20:26;;;;;;;0.38;0.22;;;;;;;;;;5225920;28;20045;-72
2023/07/19 11:23:14;;;;;;;1.23;0.52;;;;;;;;;;5225773;28;20025;-72
2023/07/19 11:25:46;;;;;;;1.25;0.50;;;;;;;;;;5224855;28;20279;-72
2023/07/19 11:28:35;;;;;;;0.77;0.40;;;;;;;;;;5225630;28;20013;-72
2023/07/19 11:31:07;;;;;;;1.75;0.60;;;;;;;;;;5225602;28;20036;-72
2023/07/19 11:33:39;;;;;;;1.77;0.63;;;;;;;;;;5225614;28;20057;-72
2023/07/19 11:36:10;;;;;;;1.35;0.55;;;;;;;;;;5224808;28;20020;-73
2023/07/19 11:38:40;;;;;;;2.97;0.73;;;;;;;;;;5225305;28;20025;-73
2023/07/19 11:41:16;;;;;;;1.98;0.60;;;;;;;;;;5225639;28;20518;-72
2023/07/19 11:43:49;;;;;;;1.65;0.70;;;;;;;;;;5225741;28;20025;-72
2023/07/19 11:46:19;;;;;;;1.77;0.80;;;;;;;;;;5224729;28;20017;-73
2023/07/19 11:48:50;;;;;;;1.30;0.85;;;;;;;;;;5225062;28;20021;-72
2023/07/19 11:51:20;;;;;;;0.90;0.57;;;;;;;;;;5225459;28;20469;-72
2023/07/19 11:53:50;;;;;;;2.10;0.90;;;;;;;;;;5225408;28;20059;-72
2023/07/19 11:56:21;;;;;;;3.30;1.00;;;;;;;;;;5224680;28;20099;-72
2023/07/19 11:58:51;;;;;;;1.77;0.70;;;;;;;;;;5223451;28;20032;-73
2023/07/19 12:01:21;;;;;;;1.80;0.95;;;;;;;;;;5224954;28;20497;-73
2023/07/19 12:03:52;;;;;;;1.67;1.00;;;;;;;;;;5225065;28;20029;-73
2023/07/19 12:06:22;;;;;;;2.97;0.98;;;;;;;;;;5224041;28;20024;-73
2023/07/19 12:08:52;;;;;;;1.27;0.80;;;;;;;;;;5224834;28;20029;-73
2023/07/19 12:11:23;;;;;;;1.23;0.68;;;;;;;;;;5224273;28;20437;-73
2023/07/19 12:13:56;;;;;;;3.80;1.13;;;;;;;;;;5225199;28;20079;-73
2023/07/19 12:16:27;;;;;;;4.93;1.25;;;;;;;;;;5224218;28;20061;-73
2023/07/19 12:18:57;;;;;;;2.35;1.13;;;;;;;;;;5224418;28;20486;-73
2023/07/19 12:21:27;;;;;;;3.25;1.27;;;;;;;;;;5224621;28;20021;-73
2023/07/19 12:23:57;;;;;;;5.72;2.13;;;;;;;;;;5224229;28;20009;-73
2023/07/19 12:26:28;;;;;;;6.03;1.63;;;;;;;;;;5224150;28;20017;-72
2023/07/19 12:28:58;;;;;;;3.22;1.50;;;;;;;;;;5224314;28;20444;-72
2023/07/19 12:31:29;;;;;;;2.58;1.27;;;;;;;;;;5224599;28;20382;-72
2023/07/19 12:33:59;;;;;;;5.20;1.33;;;;;;;;;;5224451;28;20417;-72
2023/07/19 12:36:30;;;;;;;4.93;1.92;;;;;;;;;;5223701;28;20013;-72
2023/07/19 12:39:00;;;;;;;3.45;1.58;;;;;;;;;;5224099;28;20049;-72
2023/07/19 12:41:31;;;;;;;6.43;1.77;;;;;;;;;;5224315;28;20036;-73
2023/07/19 12:44:02;;;;;;;3.40;1.42;;;;;;;;;;5224236;28;20017;-72
2023/07/19 12:46:34;;;;;;;4.28;1.67;;;;;;;;;;5223578;28;20025;-72
2023/07/19 12:49:04;;;;;;;4.13;1.70;;;;;;;;;;5224218;28;20029;-73
2023/07/19 12:51:34;;;;;;;3.33;1.60;;;;;;;;;;5223912;28;20100;-73
2023/07/19 12:54:05;;;;;;;4.60;1.55;;;;;;;;;;5224423;28;20017;-73
2023/07/19 12:56:35;;;;;;;5.20;1.50;;;;;;;;;;5223698;28;20021;-72
2023/07/19 12:59:05;;;;;;;4.45;1.75;;;;;;;;;;5224087;28;20078;-72
2023/07/19 13:01:37;;;;;;;3.78;1.77;;;;;;;;;;5223369;28;20040;-73
2023/07/19 13:04:08;;;;;;;3.78;1.63;;;;;;;;;;5224214;28;20017;-72
2023/07/19 13:06:38;;;;;;;6.28;1.65;;;;;;;;;;5223729;28;20486;-73
2023/07/19 13:09:08;;;;;;;4.43;1.60;;;;;;;;;;5223906;28;20040;-72
2023/07/19 13:11:39;;;;;;;3.63;1.67;;;;;;;;;;5223959;28;20036;-72
2023/07/19 13:14:09;;;;;;;8.13;1.60;;;;;;;;;;5223612;28;20029;-73
2023/07/19 13:16:40;;;;;;;7.57;1.75;;;;;;;;;;5224460;28;20116;-73
2023/07/19 13:19:12;;;;;;;5.90;1.98;;;;;;;;;;5228368;28;20037;-72
2023/07/19 13:21:43;;;;;;;4.00;1.65;;;;;;;;;;5228441;28;20096;-73
2023/07/19 13:24:14;;;;;;;6.25;2.58;;;;;;;;;;5227942;28;20613;-73
2023/07/19 13:26:46;;;;;;;4.90;1.65;;;;;;;;;;5227475;28;20013;-73
2023/07/19 13:29:17;;;;;;;4.13;1.67;;;;;;;;;;5227805;28;20041;-73
2023/07/19 13:31:47;;;;;;;3.53;1.60;;;;;;;;;;5228308;28;20025;-72
2023/07/19 13:34:17;;;;;;;3.53;1.75;;;;;;;;;;5228291;28;20142;-73
2023/07/19 13:36:47;;;;;;;4.45;1.65;;;;;;;;;;5226992;28;20029;-73
2023/07/19 13:39:18;;;;;;;6.57;1.75;;;;;;;;;;5227794;28;20025;-73
2023/07/19 13:41:48;;;;;;;4.40;1.60;;;;;;;;;;5227751;28;20067;-73
2023/07/19 13:44:18;;;;;;;6.25;2.03;;;;;;;;;;5227936;28;20489;-73
2023/07/19 13:46:49;;;;;;;4.55;1.73;;;;;;;;;;5227039;28;20032;-73
2023/07/19 13:49:20;;;;;;;3.92;1.80;;;;;;;;;;5227210;28;20021;-73
2023/07/19 13:51:51;;;;;;;6.38;1.80;;;;;;;;;;5227801;28;20029;-72
2023/07/19 13:54:21;;;;;;;4.72;1.80;;;;;;;;;;5227751;28;20013;-73
2023/07/19 13:56:51;;;;;;;4.40;1.65;;;;;;;;;;5226827;28;20096;-73
2023/07/19 13:59:21;;;;;;;5.22;2.22;;;;;;;;;;5226059;28;20021;-73
2023/07/19 14:01:52;;;;;;;4.68;1.52;;;;;;;;;;5226776;28;20095;-73
2023/07/19 14:04:22;;;;;;;6.30;1.73;;;;;;;;;;5227349;28;20025;-73
2023/07/19 14:06:52;;;;;;;5.22;2.25;;;;;;;;;;5226931;28;20024;-73
2023/07/19 14:09:23;;;;;;;5.13;1.90;;;;;;;;;;5225839;28;20052;-73
2023/07/19 14:11:53;;;;;;;3.30;1.80;;;;;;;;;;5227271;28;20113;-73
2023/07/19 14:14:23;;;;;;;4.00;2.00;;;;;;;;;;5226665;28;20391;-72
2023/07/19 14:16:54;;;;;;;4.18;2.38;;;;;;;;;;5226630;28;20115;-73
2023/07/19 14:19:24;;;;;;;4.50;2.05;;;;;;;;;;5226990;28;20416;-73
2023/07/19 14:21:54;;;;;;;5.40;2.10;;;;;;;;;;5227174;28;20013;-72
2023/07/19 14:24:25;;;;;;;4.53;2.00;;;;;;;;;;5226845;28;20032;-72
2023/07/19 14:26:55;;;;;;;5.05;2.25;;;;;;;;;;5226327;28;20028;-72
2023/07/19 14:29:25;;;;;;;8.50;2.72;;;;;;;;;;5226227;28;20035;-72
2023/07/19 14:31:55;;;;;;;4.25;2.25;;;;;;;;;;5226890;28;20017;-72
2023/07/19 14:34:26;;;;;;;8.73;2.10;;;;;;;;;;5227005;28;20024;-72
2023/07/19 14:36:56;;;;;;;6.65;2.30;;;;;;;;;;5226313;28;20076;-72
2023/07/19 14:39:26;;;;;;;5.00;2.40;;;;;;;;;;5226185;28;20032;-72
2023/07/19 14:41:57;;;;;;;3.72;1.88;;;;;;;;;;5226524;28;20475;-72
2023/07/19 14:44:27;;;;;;;6.30;1.90;;;;;;;;;;5226664;28;20053;-72
2023/07/19 14:46:58;;;;;;;6.35;2.33;;;;;;;;;;5226038;28;20046;-72
2023/07/19 14:49:29;;;;;;;8.45;2.10;;;;;;;;;;5226381;28;20025;-72
2023/07/19 14:52:00;;;;;;;6.35;2.45;;;;;;;;;;5226113;28;20033;-72
2023/07/19 14:54:30;;;;;;;6.97;2.30;;;;;;;;;;5226250;28;20025;-72
2023/07/19 14:57:00;;;;;;;7.18;1.95;;;;;;;;;;5225972;28;20024;-72
2023/07/19 14:59:31;;;;;;;7.97;2.30;;;;;;;;;;5226136;28;20020;-72
2023/07/19 15:02:02;;;;;;;2.95;1.80;;;;;;;;;;5224935;28;20078;-72